LST weather

Launceston Airport
Launceston, Tasmania, Australia

Public forecast

Using degrees Celsius for public forecast. Weather courtesy of forecast.io.

METAR (pilot weather report)

Retrieved 2018/01/21 16:30 UTC (16 minutes ago):

YMLT 211630Z AUTO 00000KT 9999 // NCD 17/14 Q1004 RF00.0/000.0

TAF (pilot weather forecast)

Retrieved 2018/01/21 12:36 UTC (4 hours ago):

TAF YMLT 211101Z 2112/2212 33007KT 9999 SCT025 FM211400 35006KT 9999 BKN015 FM212200 35006KT 9999 SCT030 FM220100 34012KT CAVOK FM220400 34015G25KT CAVOK FM220800 36010KT CAVOK